Time;durP1;ratioP1;P1;durP2;ratioP2;P2;SDS_P1;SDS_P2;PMS_P1;PMS_P2;Temp;Humidity;BMP_temperature;BMP_pressure;BME280_temperature;BME280_humidity;BME280_pressure;Samples;Min_cycle;Max_cycle;Signal;HPM_P1;HPM_P2
2023/08/27 00:00:42;;;;;;;12.97;9.30;;;16.60;99.90;;;;;;4988388;28;20233;-83
2023/08/27 00:03:07;;;;;;;12.83;9.53;;;16.80;99.90;;;;;;4989958;28;20249;-78
2023/08/27 00:05:33;;;;;;;13.87;8.93;;;16.80;99.90;;;;;;4991552;28;20187;-79
2023/08/27 00:07:58;;;;;;;13.30;9.33;;;16.80;99.90;;;;;;4993289;28;20183;-86
2023/08/27 00:10:24;;;;;;;16.10;9.83;;;16.90;99.90;;;;;;4994156;28;20217;-80
2023/08/27 00:12:49;;;;;;;17.27;9.70;;;16.80;99.90;;;;;;4990155;28;20183;-79
2023/08/27 00:15:15;;;;;;;16.33;10.50;;;16.70;99.90;;;;;;4990133;28;20182;-83
2023/08/27 00:17:41;;;;;;;14.47;10.50;;;16.60;99.90;;;;;;4990128;28;20798;-80
2023/08/27 00:20:09;;;;;;;13.67;9.80;;;16.50;99.90;;;;;;4985960;28;20649;-82
2023/08/27 00:22:38;;;;;;;15.90;12.10;;;16.50;99.90;;;;;;4985894;28;20499;-83
2023/08/27 00:25:05;;;;;;;17.73;12.10;;;16.60;99.90;;;;;;4991515;28;20516;-81
2023/08/27 00:27:33;;;;;;;20.87;12.80;;;16.50;99.90;;;;;;4987257;28;20512;-82
2023/08/27 00:30:00;;;;;;;18.07;12.53;;;16.50;99.90;;;;;;4983893;28;20560;-81
2023/08/27 00:32:30;;;;;;;23.63;12.77;;;17.20;99.90;;;;;;4988782;28;20541;-77
2023/08/27 00:34:55;;;;;;;14.73;11.53;;;16.60;99.90;;;;;;4985162;28;20444;-77
2023/08/27 00:37:22;;;;;;;20.60;13.17;;;16.70;99.90;;;;;;4984980;28;20456;-83
2023/08/27 00:39:47;;;;;;;17.07;13.53;;;16.60;99.90;;;;;;4985852;28;20198;-81
2023/08/27 00:42:13;;;;;;;17.03;14.17;;;16.50;99.90;;;;;;4986873;28;20468;-80
2023/08/27 00:44:38;;;;;;;19.77;14.00;;;16.40;99.90;;;;;;4986208;28;20206;-86
2023/08/27 00:47:04;;;;;;;17.73;12.80;;;16.40;99.90;;;;;;4987209;28;20183;-81
2023/08/27 00:49:30;;;;;;;14.93;11.53;;;16.40;99.90;;;;;;4982533;28;20266;-80
2023/08/27 00:51:57;;;;;;;14.37;10.30;;;16.50;99.90;;;;;;4988341;28;20492;-83
2023/08/27 00:54:23;;;;;;;15.97;10.30;;;16.50;99.90;;;;;;4986886;28;20437;-84
2023/08/27 00:56:50;;;;;;;13.93;10.10;;;16.70;99.90;;;;;;4983190;28;22411;-80
2023/08/27 00:59:16;;;;;;;12.50;10.07;;;16.80;99.90;;;;;;4985145;28;20994;-79
2023/08/27 01:01:42;;;;;;;13.27;8.83;;;16.90;99.90;;;;;;4991020;28;21346;-82
2023/08/27 01:04:08;;;;;;;16.13;10.23;;;16.90;99.90;;;;;;4985701;28;20434;-81
2023/08/27 01:06:34;;;;;;;11.47;9.97;;;16.90;99.90;;;;;;4989535;28;20449;-80
2023/08/27 01:09:30;;;;;;;13.07;10.77;;;16.90;99.90;;;;;;5001223;28;20449;-81
2023/08/27 01:12:11;;;;;;;15.83;10.40;;;16.80;99.90;;;;;;5007489;28;20542;-78
2023/08/27 01:14:37;;;;;;;19.03;11.10;;;16.80;99.90;;;;;;4995387;28;20495;-83
2023/08/27 01:17:03;;;;;;;14.20;11.40;;;16.80;99.90;;;;;;4996418;28;20506;-83
2023/08/27 01:19:30;;;;;;;16.83;11.97;;;16.90;99.90;;;;;;5003339;28;20449;-81
2023/08/27 01:21:55;;;;;;;16.80;14.13;;;17.00;99.90;;;;;;4998845;28;20473;-78
2023/08/27 01:24:21;;;;;;;22.07;15.80;;;17.00;99.90;;;;;;4991048;28;20438;-76
2023/08/27 01:26:53;;;;;;;17.87;14.03;;;17.00;99.90;;;;;;4995962;28;20250;-81
2023/08/27 01:30:09;;;;;;;18.93;13.10;;;17.00;99.90;;;;;;4998218;28;20190;-83
2023/08/27 01:32:39;;;;;;;16.13;11.90;;;17.20;99.90;;;;;;4986243;28;20489;-81
2023/08/27 01:35:06;;;;;;;27.13;12.50;;;17.20;99.90;;;;;;4990780;28;20469;-80
2023/08/27 01:37:32;;;;;;;16.50;13.37;;;16.90;99.90;;;;;;4990323;28;21572;-84
2023/08/27 01:40:00;;;;;;;17.90;13.30;;;16.80;99.90;;;;;;4988757;28;20461;-78
2023/08/27 01:42:26;;;;;;;19.80;14.10;;;16.80;99.90;;;;;;4984160;28;20430;-83
2023/08/27 01:44:52;;;;;;;19.40;14.80;;;16.70;99.90;;;;;;4990801;28;20450;-78
2023/08/27 01:47:18;;;;;;;18.33;13.20;;;16.70;99.90;;;;;;4980153;28;21094;-78
2023/08/27 01:49:44;;;;;;;17.47;13.03;;;16.80;99.90;;;;;;4987159;28;20218;-79
2023/08/27 01:52:09;;;;;;;14.97;12.53;;;16.90;99.90;;;;;;4987098;28;20456;-82
2023/08/27 01:54:35;;;;;;;14.80;11.20;;;17.00;99.90;;;;;;4982098;28;20647;-79
2023/08/27 01:57:01;;;;;;;19.60;11.87;;;17.00;99.90;;;;;;4984326;28;20190;-85
2023/08/27 01:59:27;;;;;;;18.73;13.17;;;16.90;99.90;;;;;;4987719;28;20879;-83
2023/08/27 02:01:52;;;;;;;24.57;17.23;;;16.80;99.90;;;;;;4991167;28;21052;-80
2023/08/27 02:04:18;;;;;;;15.70;12.83;;;16.70;99.90;;;;;;4988489;28;20264;-81
2023/08/27 02:06:43;;;;;;;16.93;12.73;;;16.70;99.90;;;;;;4984726;28;20205;-83
2023/08/27 02:09:09;;;;;;;18.93;14.80;;;16.80;99.90;;;;;;4988930;28;20201;-76
2023/08/27 02:11:34;;;;;;;19.70;13.83;;;16.90;99.90;;;;;;4992663;28;20941;-81
2023/08/27 02:14:00;;;;;;;19.90;14.00;;;16.90;99.90;;;;;;4996869;28;20181;-84
2023/08/27 02:16:25;;;;;;;16.30;13.70;;;16.90;99.90;;;;;;4988392;28;20273;-77
2023/08/27 02:18:51;;;;;;;22.07;14.30;;;16.80;99.90;;;;;;5001548;28;20198;-78
2023/08/27 02:21:16;;;;;;;22.70;14.00;;;16.70;99.90;;;;;;5000614;28;20281;-80
2023/08/27 02:23:42;;;;;;;20.80;14.40;;;16.60;99.90;;;;;;4992206;28;20198;-79
2023/08/27 02:26:08;;;;;;;21.27;14.37;;;16.70;99.90;;;;;;4998381;28;20229;-84
2023/08/27 02:28:33;;;;;;;20.53;14.97;;;16.80;99.90;;;;;;4999173;28;20824;-84
2023/08/27 02:30:59;;;;;;;25.97;12.30;;;16.90;99.90;;;;;;5003092;28;20309;-83
2023/08/27 02:33:25;;;;;;;17.83;13.03;;;17.00;99.90;;;;;;4997755;28;20186;-80
2023/08/27 02:35:50;;;;;;;21.73;14.73;;;17.00;99.90;;;;;;4994379;28;20214;-83
2023/08/27 02:38:17;;;;;;;22.40;14.77;;;16.90;99.90;;;;;;4993419;28;20248;-83
2023/08/27 02:40:42;;;;;;;20.60;15.80;;;16.80;99.90;;;;;;4992255;28;20293;-81
2023/08/27 02:43:08;;;;;;;23.50;15.70;;;16.80;99.90;;;;;;4994431;28;20498;-81
2023/08/27 02:45:34;;;;;;;19.73;14.57;;;16.80;99.90;;;;;;4998640;28;20561;-81
2023/08/27 02:47:59;;;;;;;20.10;13.43;;;16.80;99.90;;;;;;4984570;28;20202;-79
2023/08/27 02:50:25;;;;;;;23.27;16.10;;;16.80;99.90;;;;;;4990688;28;20294;-80
2023/08/27 02:52:50;;;;;;;21.53;13.50;;;16.80;99.90;;;;;;4989469;28;20285;-83
2023/08/27 02:55:16;;;;;;;19.77;12.90;;;16.80;99.90;;;;;;4994321;28;20288;-79
2023/08/27 02:57:41;;;;;;;20.10;11.97;;;16.80;99.90;;;;;;4988225;28;20182;-77
2023/08/27 03:00:07;;;;;;;18.70;10.97;;;16.90;99.90;;;;;;4987805;28;20592;-83
2023/08/27 03:02:33;;;;;;;21.00;10.50;;;17.00;99.90;;;;;;4987704;28;20494;-85
2023/08/27 03:05:04;;;;;;;13.30;9.57;;;17.00;99.90;;;;;;4995214;28;20442;-83
2023/08/27 03:07:30;;;;;;;18.60;10.57;;;17.00;99.90;;;;;;4989932;28;20674;-82
2023/08/27 03:09:55;;;;;;;20.03;9.27;;;16.80;99.90;;;;;;4996806;28;20433;-82
2023/08/27 03:12:21;;;;;;;15.13;8.60;;;17.00;99.90;;;;;;4993491;28;20519;-82
2023/08/27 03:14:46;;;;;;;17.10;9.60;;;16.80;99.90;;;;;;4992499;28;20186;-82
2023/08/27 03:17:12;;;;;;;15.33;8.83;;;16.90;99.90;;;;;;5000032;28;20291;-79
2023/08/27 03:19:37;;;;;;;14.30;9.17;;;16.90;99.90;;;;;;4991564;28;20186;-83
2023/08/27 03:22:03;;;;;;;19.03;9.10;;;16.90;99.90;;;;;;4994165;28;20246;-77
2023/08/27 03:24:29;;;;;;;15.33;9.07;;;16.90;99.90;;;;;;5007570;28;20210;-79
2023/08/27 03:26:54;;;;;;;11.97;8.30;;;16.90;99.90;;;;;;4999599;28;20187;-79
2023/08/27 03:29:21;;;;;;;27.53;10.40;;;16.80;99.90;;;;;;4994072;28;20182;-82
2023/08/27 03:31:47;;;;;;;17.83;9.07;;;16.70;99.90;;;;;;4999911;28;20776;-80
2023/08/27 03:34:12;;;;;;;19.47;10.57;;;16.60;99.90;;;;;;4987023;28;20429;-82
2023/08/27 03:36:38;;;;;;;15.93;11.20;;;16.40;99.90;;;;;;4985777;28;21167;-84
2023/08/27 03:39:04;;;;;;;17.87;11.30;;;16.30;99.90;;;;;;4985382;28;20183;-81
2023/08/27 03:41:30;;;;;;;18.10;11.10;;;16.40;99.90;;;;;;4982492;28;21189;-84
2023/08/27 03:43:55;;;;;;;17.47;12.20;;;16.40;99.90;;;;;;4988704;28;20452;-81
2023/08/27 03:46:21;;;;;;;19.10;12.83;;;16.40;99.90;;;;;;5004851;28;20182;-79
2023/08/27 03:48:46;;;;;;;21.20;13.40;;;16.30;99.90;;;;;;4996093;28;20183;-82
2023/08/27 03:51:11;;;;;;;23.87;13.53;;;16.30;99.90;;;;;;4997176;28;20218;-78
2023/08/27 03:53:37;;;;;;;19.20;12.40;;;16.30;99.90;;;;;;4993025;28;20217;-79
2023/08/27 03:56:04;;;;;;;20.87;12.67;;;16.40;99.90;;;;;;4991748;28;20203;-83
2023/08/27 03:58:29;;;;;;;17.40;10.27;;;16.50;99.90;;;;;;4998940;28;20245;-79
2023/08/27 04:00:55;;;;;;;19.57;12.33;;;16.60;99.90;;;;;;4995383;28;20521;-82
2023/08/27 04:03:20;;;;;;;19.90;11.67;;;16.60;99.90;;;;;;4999686;28;20189;-82
2023/08/27 04:05:49;;;;;;;18.30;10.57;;;16.50;99.90;;;;;;4989892;28;20191;-82
2023/08/27 04:08:17;;;;;;;17.40;11.97;;;16.50;99.90;;;;;;4993446;28;20178;-79
2023/08/27 04:10:52;;;;;;;16.23;11.13;;;16.50;99.90;;;;;;4992830;28;20476;-84
2023/08/27 04:13:18;;;;;;;23.10;12.00;;;16.50;99.90;;;;;;4990494;28;20441;-80
2023/08/27 04:15:46;;;;;;;14.50;11.63;;;16.50;99.90;;;;;;4992315;28;20479;-79
2023/08/27 04:18:11;;;;;;;23.10;13.20;;;16.50;99.90;;;;;;4989362;28;20480;-76
2023/08/27 04:20:37;;;;;;;20.37;12.53;;;16.40;99.90;;;;;;4984945;28;20951;-83
2023/08/27 04:23:03;;;;;;;17.40;12.30;;;16.30;99.90;;;;;;4984981;28;20186;-80
2023/08/27 04:25:29;;;;;;;21.73;13.63;;;16.30;99.90;;;;;;4988906;28;20438;-80
2023/08/27 04:27:56;;;;;;;23.43;16.17;;;16.30;99.90;;;;;;4997344;28;20247;-78
2023/08/27 04:30:21;;;;;;;16.70;12.40;;;16.30;99.90;;;;;;5010319;28;20465;-82
2023/08/27 04:32:47;;;;;;;26.03;14.23;;;16.40;99.90;;;;;;4999659;28;21339;-80
2023/08/27 04:35:14;;;;;;;24.97;17.37;;;16.50;99.90;;;;;;4995432;28;21595;-80
2023/08/27 04:37:39;;;;;;;24.47;16.27;;;16.50;99.90;;;;;;4998082;28;20954;-82
2023/08/27 04:40:06;;;;;;;19.50;16.27;;;16.40;99.90;;;;;;4992735;28;20460;-80
2023/08/27 04:42:31;;;;;;;23.97;16.30;;;16.30;99.90;;;;;;4992599;28;21628;-83
2023/08/27 04:44:57;;;;;;;29.57;17.67;;;16.30;99.90;;;;;;4989262;28;21157;-83
2023/08/27 04:47:22;;;;;;;22.53;16.60;;;16.30;99.90;;;;;;4987389;28;20213;-83
2023/08/27 04:49:48;;;;;;;22.90;15.83;;;16.20;99.90;;;;;;4990486;28;20212;-83
2023/08/27 04:52:14;;;;;;;23.43;16.50;;;16.30;99.90;;;;;;4993190;28;20210;-82
2023/08/27 04:54:40;;;;;;;27.07;16.97;;;16.40;99.90;;;;;;4992460;28;20264;-83
2023/08/27 04:57:06;;;;;;;26.00;16.20;;;16.50;99.90;;;;;;4991387;28;21013;-82
2023/08/27 04:59:31;;;;;;;22.40;17.50;;;16.40;99.90;;;;;;4992039;28;20186;-86
2023/08/27 05:01:59;;;;;;;25.77;17.50;;;16.30;99.90;;;;;;4992749;28;20265;-82
2023/08/27 05:04:31;;;;;;;21.43;16.57;;;16.20;99.90;;;;;;5003190;28;20182;-82
2023/08/27 05:06:56;;;;;;;29.03;17.07;;;16.20;99.90;;;;;;4993551;28;20515;-80
2023/08/27 05:09:22;;;;;;;19.73;15.80;;;16.40;99.90;;;;;;4984758;28;20525;-84
2023/08/27 05:11:48;;;;;;;18.90;14.43;;;16.50;99.90;;;;;;4996396;28;20247;-79
2023/08/27 05:14:14;;;;;;;20.03;14.47;;;16.50;99.90;;;;;;4994459;28;20884;-83
2023/08/27 05:16:39;;;;;;;21.60;14.87;;;16.50;99.90;;;;;;4990585;28;20430;-82
2023/08/27 05:19:05;;;;;;;19.10;15.00;;;16.60;99.90;;;;;;4991315;28;20221;-82
2023/08/27 05:21:30;;;;;;;17.93;14.33;;;16.70;99.90;;;;;;4990049;28;20213;-80
2023/08/27 05:23:56;;;;;;;22.30;15.80;;;16.70;99.90;;;;;;4995789;28;20183;-82
2023/08/27 05:26:21;;;;;;;17.70;13.20;;;16.80;99.90;;;;;;4990893;28;20672;-80
2023/08/27 05:28:47;;;;;;;19.37;12.73;;;16.80;99.90;;;;;;4993414;28;20219;-78
2023/08/27 05:31:12;;;;;;;14.57;12.00;;;16.80;99.90;;;;;;4992132;28;20210;-81
2023/08/27 05:33:38;;;;;;;19.30;14.33;;;16.60;99.90;;;;;;5003735;28;20170;-76
2023/08/27 05:36:03;;;;;;;26.37;15.20;;;16.60;99.90;;;;;;5005237;28;20294;-83
2023/08/27 05:38:29;;;;;;;23.53;13.80;;;16.60;99.90;;;;;;4994015;28;20213;-81
2023/08/27 05:40:55;;;;;;;25.07;15.10;;;16.50;99.90;;;;;;4990858;28;20233;-83
2023/08/27 05:43:20;;;;;;;22.27;12.40;;;16.60;99.90;;;;;;4991976;28;20217;-83
2023/08/27 05:45:46;;;;;;;17.63;13.43;;;16.60;99.90;;;;;;4989724;28;20190;-82
2023/08/27 05:48:11;;;;;;;19.63;13.17;;;16.80;99.90;;;;;;4989916;28;20203;-78
2023/08/27 05:50:37;;;;;;;24.90;15.40;;;16.80;99.90;;;;;;5004630;28;20710;-82
2023/08/27 05:53:04;;;;;;;16.60;11.73;;;16.90;99.90;;;;;;4989795;28;20254;-80
2023/08/27 05:55:29;;;;;;;17.10;12.07;;;16.90;99.90;;;;;;4984873;28;20263;-81
2023/08/27 05:57:55;;;;;;;16.50;11.00;;;16.90;99.90;;;;;;4986364;28;20426;-82
2023/08/27 06:00:20;;;;;;;14.43;10.47;;;17.00;99.90;;;;;;4993190;28;20198;-80
2023/08/27 06:02:46;;;;;;;15.37;8.73;;;17.00;99.90;;;;;;5007459;28;22181;-81
2023/08/27 06:05:12;;;;;;;14.53;7.03;;;17.10;99.90;;;;;;4986519;28;20191;-77
2023/08/27 06:07:37;;;;;;;10.10;7.03;;;17.20;99.90;;;;;;4988583;28;20224;-80
2023/08/27 06:10:03;;;;;;;19.93;8.93;;;17.10;99.90;;;;;;4982825;28;20276;-78
2023/08/27 06:12:29;;;;;;;11.80;8.53;;;17.00;99.90;;;;;;4990233;28;20253;-82
2023/08/27 06:14:56;;;;;;;9.70;7.60;;;17.10;99.90;;;;;;4990364;28;20536;-81
2023/08/27 06:17:22;;;;;;;8.27;6.47;;;17.20;99.90;;;;;;4996124;28;20186;-83
2023/08/27 06:19:47;;;;;;;12.47;7.23;;;17.10;99.90;;;;;;4989689;28;20661;-83
2023/08/27 06:22:13;;;;;;;17.67;6.40;;;17.10;99.90;;;;;;4989742;28;20682;-78
2023/08/27 06:24:38;;;;;;;10.70;7.27;;;17.20;99.90;;;;;;4989711;28;20187;-82
2023/08/27 06:27:04;;;;;;;10.37;6.60;;;17.20;99.90;;;;;;4988212;28;20192;-78
2023/08/27 06:29:29;;;;;;;9.80;7.30;;;17.20;99.90;;;;;;4992310;28;20187;-81
2023/08/27 06:31:56;;;;;;;8.73;6.17;;;17.20;99.90;;;;;;4989417;28;21761;-81
2023/08/27 06:34:21;;;;;;;9.37;6.93;;;17.30;99.90;;;;;;4982134;28;20201;-81
2023/08/27 06:36:47;;;;;;;13.70;7.27;;;17.40;99.90;;;;;;4986095;28;20997;-79
2023/08/27 06:39:12;;;;;;;7.50;6.80;;;17.50;99.90;;;;;;5022727;28;20185;-82
2023/08/27 06:41:38;;;;;;;8.20;6.70;;;17.60;99.90;;;;;;4994388;28;20190;-77
2023/08/27 06:44:04;;;;;;;7.97;6.40;;;17.70;99.90;;;;;;4992032;28;20432;-82
2023/08/27 06:46:29;;;;;;;8.50;6.10;;;17.70;99.90;;;;;;4987017;28;20178;-78
2023/08/27 06:48:56;;;;;;;9.80;6.43;;;17.50;99.90;;;;;;4988739;28;20210;-84
2023/08/27 06:51:21;;;;;;;10.43;5.40;;;17.40;99.90;;;;;;4991647;28;20207;-85
2023/08/27 06:53:47;;;;;;;10.00;8.27;;;17.40;99.90;;;;;;4990765;28;20979;-82
2023/08/27 06:56:12;;;;;;;10.90;9.63;;;17.60;99.90;;;;;;4985730;28;20190;-80
2023/08/27 06:58:38;;;;;;;13.43;9.47;;;17.50;99.90;;;;;;4989529;28;20197;-82
2023/08/27 07:01:04;;;;;;;13.43;9.90;;;17.60;99.90;;;;;;4982019;28;20206;-79
2023/08/27 07:03:31;;;;;;;16.23;10.40;;;17.60;99.90;;;;;;4981415;28;20191;-80
2023/08/27 07:05:56;;;;;;;15.60;11.20;;;17.60;99.90;;;;;;4982752;28;20464;-78
2023/08/27 07:08:22;;;;;;;16.57;12.53;;;17.70;99.90;;;;;;4981951;28;20438;-77
2023/08/27 07:10:48;;;;;;;19.10;13.60;;;17.80;99.90;;;;;;4990011;28;20253;-86
2023/08/27 07:13:13;;;;;;;14.90;11.87;;;18.00;99.90;;;;;;4987378;28;20201;-81
2023/08/27 07:15:39;;;;;;;12.57;11.00;;;18.20;99.90;;;;;;4993182;28;20289;-81
2023/08/27 07:18:05;;;;;;;19.07;11.43;;;18.50;99.90;;;;;;4992710;28;21489;-80
2023/08/27 07:20:30;;;;;;;13.67;10.80;;;18.90;99.90;;;;;;4984059;28;20203;-81
2023/08/27 07:22:56;;;;;;;8.87;7.97;;;19.40;99.90;;;;;;4986305;28;20274;-82
2023/08/27 07:25:23;;;;;;;9.43;8.40;;;19.90;99.90;;;;;;4985471;28;20187;-85
2023/08/27 07:27:49;;;;;;;13.57;7.07;;;20.50;99.90;;;;;;4987103;28;20452;-83
2023/08/27 07:30:15;;;;;;;13.20;7.00;;;;;;;;;;4987151;28;20461;-81
2023/08/27 07:32:41;;;;;;;9.33;5.93;;;20.90;99.90;;;;;;4983112;28;20198;-84
2023/08/27 07:35:07;;;;;;;7.17;6.53;;;21.10;99.90;;;;;;4987243;28;20873;-77
2023/08/27 07:37:33;;;;;;;6.87;5.03;;;21.10;99.90;;;;;;4992489;28;20186;-83
2023/08/27 07:39:58;;;;;;;9.70;7.00;;;21.30;99.90;;;;;;4992919;28;21802;-86
2023/08/27 07:42:24;;;;;;;7.97;6.33;;;21.10;99.90;;;;;;4984768;28;20300;-80
2023/08/27 07:44:49;;;;;;;7.83;5.77;;;20.80;99.90;;;;;;4979095;28;20560;-82
2023/08/27 07:47:15;;;;;;;9.63;6.43;;;20.90;99.90;;;;;;4982461;28;20262;-81
2023/08/27 07:49:40;;;;;;;7.57;6.23;;;20.90;99.90;;;;;;4988896;28;20186;-79
2023/08/27 07:52:06;;;;;;;7.60;5.93;;;20.70;99.90;;;;;;4988927;28;20214;-83
2023/08/27 07:54:31;;;;;;;7.97;6.20;;;20.50;99.90;;;;;;4985481;28;20182;-86
2023/08/27 07:56:57;;;;;;;9.90;6.53;;;20.40;99.90;;;;;;4979340;28;20187;-85
2023/08/27 07:59:22;;;;;;;11.13;6.60;;;20.30;99.90;;;;;;4971229;28;20187;-81
2023/08/27 08:01:48;;;;;;;7.83;6.53;;;20.50;99.90;;;;;;4979064;28;20202;-79
2023/08/27 08:04:14;;;;;;;12.60;6.40;;;20.50;99.90;;;;;;4974200;28;20549;-81
2023/08/27 08:06:39;;;;;;;11.40;5.63;;;20.80;99.90;;;;;;4980186;28;20209;-85
2023/08/27 08:09:05;;;;;;;7.20;5.00;;;20.50;99.90;;;;;;4975982;28;20295;-79
2023/08/27 08:11:30;;;;;;;6.37;4.77;;;20.80;99.90;;;;;;4978879;28;21086;-79
2023/08/27 08:13:56;;;;;;;7.10;4.93;;;21.10;99.90;;;;;;4981266;28;20210;-83
2023/08/27 08:16:23;;;;;;;10.63;5.07;;;21.10;99.90;;;;;;4982621;28;20186;-83
2023/08/27 08:18:48;;;;;;;5.37;4.70;;;21.00;99.90;;;;;;4982647;28;20175;-82
2023/08/27 08:21:14;;;;;;;13.03;5.63;;;21.30;99.90;;;;;;4985612;28;20538;-85
2023/08/27 08:23:40;;;;;;;7.43;6.00;;;21.60;99.90;;;;;;4987066;28;20185;-81
2023/08/27 08:26:06;;;;;;;9.63;4.73;;;21.40;99.90;;;;;;4985781;28;22101;-86
2023/08/27 08:28:32;;;;;;;10.10;4.33;;;21.40;99.90;;;;;;5004033;28;20241;-84
2023/08/27 08:30:58;;;;;;;4.30;3.90;;;21.50;99.90;;;;;;4985418;28;20492;-79
2023/08/27 08:33:23;;;;;;;9.20;5.07;;;21.70;99.90;;;;;;4989879;28;20962;-84
2023/08/27 08:35:49;;;;;;;7.63;5.30;;;21.30;99.90;;;;;;4982967;28;20233;-82
2023/08/27 08:38:14;;;;;;;10.53;6.43;;;21.30;99.90;;;;;;4984546;28;20202;-85
2023/08/27 08:40:51;;;;;;;8.23;4.70;;;21.20;99.90;;;;;;5001893;28;20219;-83
2023/08/27 08:43:25;;;;;;;8.63;4.83;;;21.50;99.90;;;;;;4987191;28;20185;-85
2023/08/27 08:46:06;;;;;;;4.70;3.70;;;21.70;99.90;;;;;;4990807;28;20569;-85
2023/08/27 08:48:40;;;;;;;5.53;4.40;;;21.80;99.90;;;;;;4988085;28;20493;-85
2023/08/27 08:51:11;;;;;;;6.97;4.43;;;21.80;99.90;;;;;;4986347;28;20480;-84
2023/08/27 08:53:42;;;;;;;8.27;6.50;;;21.80;99.90;;;;;;4993640;28;21198;-83
2023/08/27 08:56:13;;;;;;;6.73;4.70;;;21.60;99.90;;;;;;5009301;28;20510;-78
2023/08/27 08:58:42;;;;;;;9.13;4.67;;;21.40;99.90;;;;;;4997644;28;20576;-83
2023/08/27 09:01:08;;;;;;;4.90;3.90;;;20.90;99.90;;;;;;4979115;28;20545;-82
2023/08/27 09:03:36;;;;;;;11.00;5.23;;;20.60;99.90;;;;;;4982665;28;20445;-79
2023/08/27 09:06:02;;;;;;;9.60;4.90;;;20.60;99.90;;;;;;4988062;28;20491;-83
2023/08/27 09:08:30;;;;;;;5.83;4.20;;;20.70;99.90;;;;;;4995421;28;20973;-80
2023/08/27 09:10:56;;;;;;;7.57;5.20;;;20.80;99.90;;;;;;4989830;28;20464;-87
2023/08/27 09:13:22;;;;;;;9.23;4.83;;;21.10;99.90;;;;;;4997143;28;20434;-79
2023/08/27 09:15:49;;;;;;;5.00;3.83;;;21.50;99.90;;;;;;4985285;28;20427;-81
2023/08/27 09:18:15;;;;;;;9.43;4.17;;;21.60;99.90;;;;;;4999717;28;20183;-82
2023/08/27 09:20:44;;;;;;;8.77;4.20;;;22.30;99.90;;;;;;4995975;28;20461;-84
2023/08/27 09:23:11;;;;;;;5.10;4.27;;;22.30;99.90;;;;;;4994628;28;20443;-84
2023/08/27 09:25:37;;;;;;;5.53;4.00;;;22.10;99.90;;;;;;4993653;28;21036;-81
2023/08/27 09:28:06;;;;;;;6.67;4.63;;;21.90;99.90;;;;;;4991238;28;20548;-84
2023/08/27 09:30:31;;;;;;;13.73;4.17;;;22.50;99.90;;;;;;4998283;28;20199;-83
2023/08/27 09:32:57;;;;;;;5.50;3.47;;;23.50;99.90;;;;;;4995135;28;20449;-82
2023/08/27 09:35:23;;;;;;;9.63;4.23;;;;;;;;;;4993900;28;20187;-82
2023/08/27 09:37:49;;;;;;;7.33;4.50;;;24.70;99.90;;;;;;4997181;28;20201;-84
2023/08/27 09:40:16;;;;;;;6.70;3.17;;;25.60;99.90;;;;;;4995084;28;20539;-89
2023/08/27 09:42:43;;;;;;;7.70;3.37;;;26.60;99.90;;;;;;4982220;28;20188;-84
2023/08/27 09:45:08;;;;;;;5.37;3.37;;;27.40;99.90;;;;;;4988030;28;20440;-81
2023/08/27 09:47:36;;;;;;;9.00;3.53;;;27.40;99.90;;;;;;4985954;28;20445;-86
2023/08/27 09:50:13;;;;;;;5.53;3.67;;;27.30;99.90;;;;;;4998119;28;20768;-86
2023/08/27 09:52:39;;;;;;;4.77;3.50;;;27.20;99.90;;;;;;4988442;28;20469;-81
2023/08/27 09:55:13;;;;;;;6.40;3.30;;;27.70;99.90;;;;;;4993201;28;20460;-85
2023/08/27 09:57:38;;;;;;;5.97;3.07;;;28.10;99.90;;;;;;5006491;28;20263;-85
2023/08/27 10:00:08;;;;;;;5.20;3.10;;;26.70;99.90;;;;;;4986688;28;21658;-86
2023/08/27 10:02:35;;;;;;;5.57;3.27;;;25.80;99.90;;;;;;5007204;28;20432;-85
2023/08/27 10:05:01;;;;;;;4.93;3.50;;;25.90;99.90;;;;;;4994905;28;20867;-81
2023/08/27 10:07:26;;;;;;;3.83;2.80;;;25.20;99.90;;;;;;4988827;28;20431;-80
2023/08/27 10:09:53;;;;;;;5.13;3.23;;;25.00;99.90;;;;;;4996202;28;20187;-85
2023/08/27 10:12:21;;;;;;;7.93;3.17;;;25.30;99.90;;;;;;4993753;28;20539;-83
2023/08/27 10:14:47;;;;;;;7.10;3.20;;;24.80;99.90;;;;;;4989800;28;20459;-81
2023/08/27 10:17:15;;;;;;;5.60;3.70;;;24.10;99.90;;;;;;4996605;28;20518;-80
2023/08/27 10:19:41;;;;;;;6.97;2.50;;;25.10;99.90;;;;;;4996003;28;20501;-85
2023/08/27 10:22:07;;;;;;;5.07;3.20;;;24.70;99.90;;;;;;4992804;28;20483;-87
2023/08/27 10:24:33;;;;;;;6.83;3.00;;;24.00;99.90;;;;;;4981028;28;20436;-84
2023/08/27 10:27:03;;;;;;;4.97;2.67;;;23.90;99.90;;;;;;4990284;28;20574;-81
2023/08/27 10:29:29;;;;;;;4.77;2.70;;;23.00;99.90;;;;;;4988130;28;20452;-79
2023/08/27 10:31:56;;;;;;;2.83;2.53;;;23.10;99.90;;;;;;4988944;28;20914;-84
2023/08/27 10:34:28;;;;;;;5.30;3.17;;;23.40;99.90;;;;;;4984707;28;20437;-83
2023/08/27 10:36:58;;;;;;;5.50;2.67;;;23.20;99.90;;;;;;4990566;28;20463;-81
2023/08/27 10:39:28;;;;;;;5.53;3.00;;;23.00;99.90;;;;;;4986265;28;20442;-80
2023/08/27 10:41:53;;;;;;;9.47;2.60;;;23.00;99.90;;;;;;4993350;28;20466;-82
2023/08/27 10:44:20;;;;;;;5.63;3.10;;;22.90;99.90;;;;;;4994766;28;20786;-84
2023/08/27 10:47:14;;;;;;;4.20;2.57;;;23.30;99.90;;;;;;4995161;28;20172;-87
2023/08/27 10:49:42;;;;;;;3.90;2.27;;;23.00;99.90;;;;;;4992910;28;20440;-82
2023/08/27 10:52:18;;;;;;;2.73;2.23;;;22.90;99.90;;;;;;4990924;28;20464;-80
2023/08/27 10:54:48;;;;;;;3.63;2.37;;;23.30;99.90;;;;;;4990095;28;22216;-83
2023/08/27 10:57:23;;;;;;;4.80;3.50;;;23.00;99.90;;;;;;4987281;28;20485;-85
2023/08/27 10:59:51;;;;;;;3.73;3.40;;;23.50;99.90;;;;;;4992607;28;20469;-83
2023/08/27 11:02:17;;;;;;;3.30;2.20;;;23.50;99.90;;;;;;4992236;28;20436;-86
2023/08/27 11:04:53;;;;;;;5.33;2.63;;;23.90;99.90;;;;;;4992519;28;20445;-84
2023/08/27 11:07:22;;;;;;;5.00;2.30;;;23.80;99.90;;;;;;4993874;28;20445;-79
2023/08/27 11:09:55;;;;;;;5.33;1.90;;;23.70;99.90;;;;;;5003288;28;20449;-85
2023/08/27 11:12:25;;;;;;;5.40;2.40;;;23.70;99.90;;;;;;4997406;28;20837;-82
2023/08/27 11:14:52;;;;;;;4.70;2.53;;;23.60;99.90;;;;;;4995695;28;20438;-84
2023/08/27 11:17:26;;;;;;;4.70;2.87;;;23.70;99.90;;;;;;4989942;28;20530;-85
2023/08/27 11:19:52;;;;;;;5.13;2.90;;;23.20;99.90;;;;;;4993538;28;20964;-85
2023/08/27 11:22:21;;;;;;;5.73;2.73;;;23.50;99.90;;;;;;4990281;28;20448;-82
2023/08/27 11:24:54;;;;;;;5.17;2.50;;;23.70;99.90;;;;;;4996089;28;20447;-82
2023/08/27 11:27:22;;;;;;;3.70;2.10;;;23.80;99.90;;;;;;5000969;28;20452;-83
2023/08/27 11:29:52;;;;;;;3.53;2.73;;;24.40;99.90;;;;;;4987860;28;20467;-84
2023/08/27 11:32:22;;;;;;;4.07;2.70;;;25.00;99.90;;;;;;4994399;28;20458;-87
2023/08/27 11:34:52;;;;;;;12.43;2.57;;;24.80;99.90;;;;;;4989678;28;20968;-82
2023/08/27 11:37:17;;;;;;;4.67;2.43;;;25.30;99.90;;;;;;4990047;28;20557;-84
2023/08/27 11:39:44;;;;;;;8.20;2.40;;;25.20;99.90;;;;;;4990201;28;20618;-87
2023/08/27 11:42:16;;;;;;;8.80;2.37;;;25.40;99.90;;;;;;4997526;28;20288;-85
2023/08/27 11:44:48;;;;;;;3.07;2.00;;;25.80;99.90;;;;;;4988512;28;21413;-83
2023/08/27 11:47:14;;;;;;;3.63;2.10;;;26.40;99.90;;;;;;4985621;28;20481;-85
2023/08/27 11:49:39;;;;;;;3.70;1.83;;;26.60;99.90;;;;;;4986837;28;21216;-87
2023/08/27 11:52:05;;;;;;;3.63;2.00;;;26.50;99.90;;;;;;4992614;28;20219;-89
2023/08/27 11:54:33;;;;;;;4.43;1.90;;;27.10;99.90;;;;;;4992907;28;20948;-82
2023/08/27 11:56:59;;;;;;;2.90;1.80;;;;;;;;;;4994718;28;20185;-82
2023/08/27 11:59:28;;;;;;;3.13;1.70;;;27.60;99.90;;;;;;4993720;28;20430;-82
2023/08/27 12:01:57;;;;;;;3.87;2.20;;;27.40;99.90;;;;;;4996286;28;20483;-84
2023/08/27 12:04:26;;;;;;;3.13;2.20;;;26.70;99.90;;;;;;4988152;28;20437;-85
2023/08/27 12:07:02;;;;;;;2.80;2.00;;;26.30;99.90;;;;;;4991469;28;20448;-82
2023/08/27 12:09:31;;;;;;;3.67;2.10;;;25.50;99.90;;;;;;4987579;28;20434;-82
2023/08/27 12:12:02;;;;;;;4.93;2.53;;;25.00;99.90;;;;;;4982875;28;20591;-83
2023/08/27 12:14:29;;;;;;;2.90;2.53;;;24.80;99.90;;;;;;4982161;28;20515;-83
2023/08/27 12:17:07;;;;;;;2.37;2.17;;;24.80;99.90;;;;;;4984435;28;20556;-85
2023/08/27 12:19:33;;;;;;;4.07;2.47;;;24.70;99.90;;;;;;4982558;28;20553;-84
2023/08/27 12:21:59;;;;;;;3.83;2.23;;;25.10;99.90;;;;;;4989037;28;20461;-78
2023/08/27 12:24:44;;;;;;;3.30;1.97;;;25.10;99.90;;;;;;4997376;28;20452;-80
2023/08/27 12:27:19;;;;;;;2.07;1.83;;;25.20;99.90;;;;;;4988913;28;20785;-82
2023/08/27 12:29:50;;;;;;;2.23;1.43;;;25.50;99.90;;;;;;5001277;28;20976;-81
2023/08/27 12:32:18;;;;;;;3.30;2.00;;;25.20;99.90;;;;;;4985702;28;20480;-82
2023/08/27 12:34:51;;;;;;;7.33;2.17;;;25.00;99.90;;;;;;4988930;28;20456;-82
2023/08/27 12:37:19;;;;;;;5.87;1.80;;;24.80;99.90;;;;;;4988030;28;20547;-85